Time;durP1;ratioP1;P1;durP2;ratioP2;P2;SDS_P1;SDS_P2;PMS_P1;PMS_P2;Temp;Humidity;BMP_temperature;BMP_pressure;BME280_temperature;BME280_humidity;BME280_pressure;Samples;Min_cycle;Max_cycle;Signal;HPM_P1;HPM_P2
2020/12/25 00:00:54;;;;;;;14.25;5.07;;;;;;;;;;8255900;28;20456;-74
2020/12/25 00:05:11;;;;;;;20.90;5.70;;;;;;;;;;8256473;28;20048;-74
2020/12/25 00:09:14;;;;;;;13.98;4.68;;;;;;;;;;8255904;28;20079;-75
2020/12/25 00:13:17;;;;;;;12.30;4.47;;;;;;;;;;8255539;28;20502;-74
2020/12/25 00:17:19;;;;;;;10.10;4.43;;;;;;;;;;8255505;28;20068;-74
2020/12/25 00:21:24;;;;;;;13.23;4.60;;;;;;;;;;8259396;28;20053;-74
2020/12/25 00:25:27;;;;;;;6.57;2.90;;;;;;;;;;8260685;28;20423;-74
2020/12/25 00:29:30;;;;;;;12.77;3.95;;;;;;;;;;8261976;28;20370;-74
2020/12/25 00:33:33;;;;;;;12.52;4.10;;;;;;;;;;8259898;28;20491;-74
2020/12/25 00:37:36;;;;;;;6.78;3.35;;;;;;;;;;8261334;28;20368;-77
2020/12/25 00:41:48;;;;;;;14.45;4.00;;;;;;;;;;8259802;28;20394;-75
2020/12/25 00:45:53;;;;;;;18.30;4.22;;;;;;;;;;8261416;28;20041;-75
2020/12/25 00:49:56;;;;;;;13.93;4.18;;;;;;;;;;8261003;28;20053;-75
2020/12/25 00:53:59;;;;;;;11.13;3.70;;;;;;;;;;8259142;28;20456;-75
2020/12/25 00:58:18;;;;;;;9.77;3.00;;;;;;;;;;8261736;28;20459;-74
2020/12/25 01:02:22;;;;;;;5.00;2.35;;;;;;;;;;8259524;28;20045;-74
2020/12/25 01:06:25;;;;;;;6.03;2.97;;;;;;;;;;8259709;28;20476;-74
2020/12/25 01:10:28;;;;;;;7.88;3.35;;;;;;;;;;8260301;28;20383;-75
2020/12/25 01:14:31;;;;;;;6.55;2.60;;;;;;;;;;8259992;28;20106;-74
2020/12/25 01:18:35;;;;;;;23.95;5.95;;;;;;;;;;8258692;28;20464;-74
2020/12/25 01:22:39;;;;;;;13.30;3.72;;;;;;;;;;8259022;28;20380;-75
2020/12/25 01:26:41;;;;;;;14.48;4.47;;;;;;;;;;8259421;28;20107;-74
2020/12/25 01:30:45;;;;;;;8.77;3.00;;;;;;;;;;8259548;28;20483;-73
2020/12/25 01:34:49;;;;;;;6.95;3.00;;;;;;;;;;8257352;28;20384;-75
2020/12/25 01:38:52;;;;;;;6.78;2.85;;;;;;;;;;8258306;28;20380;-74
2020/12/25 01:42:55;;;;;;;7.32;2.55;;;;;;;;;;8257900;28;20360;-74
2020/12/25 01:46:59;;;;;;;4.35;2.00;;;;;;;;;;8257478;28;20406;-74
2020/12/25 01:51:03;;;;;;;13.60;4.30;;;;;;;;;;8258837;28;20357;-74
2020/12/25 01:55:10;;;;;;;20.98;5.00;;;;;;;;;;8257681;28;20478;-74
2020/12/25 01:59:13;;;;;;;10.85;3.10;;;;;;;;;;8259472;28;20398;-74
2020/12/25 02:03:16;;;;;;;9.05;3.28;;;;;;;;;;8258317;28;20482;-75
2020/12/25 02:07:19;;;;;;;2.60;2.00;;;;;;;;;;8258185;28;20380;-74
2020/12/25 02:11:22;;;;;;;3.13;2.22;;;;;;;;;;8240079;28;20357;-74
2020/12/25 02:15:25;;;;;;;5.40;2.67;;;;;;;;;;8256820;28;20479;-74
2020/12/25 02:19:28;;;;;;;3.80;2.67;;;;;;;;;;8258122;28;20353;-74
2020/12/25 02:23:31;;;;;;;4.90;2.60;;;;;;;;;;8258025;28;20486;-74
2020/12/25 02:27:35;;;;;;;7.55;3.83;;;;;;;;;;8259565;28;20364;-74
2020/12/25 02:31:38;;;;;;;4.05;2.80;;;;;;;;;;8256476;28;20489;-74
2020/12/25 02:35:41;;;;;;;5.55;3.08;;;;;;;;;;8258180;28;20821;-74
2020/12/25 02:39:44;;;;;;;5.15;2.67;;;;;;;;;;8257858;28;20468;-74
2020/12/25 02:43:49;;;;;;;3.67;2.47;;;;;;;;;;8257407;28;20479;-74
2020/12/25 02:47:52;;;;;;;3.88;3.28;;;;;;;;;;8256473;28;20049;-74
2020/12/25 02:51:55;;;;;;;4.18;2.83;;;;;;;;;;8255508;28;20396;-73
2020/12/25 02:55:59;;;;;;;5.68;3.00;;;;;;;;;;8257206;28;20483;-74
2020/12/25 03:00:01;;;;;;;3.47;2.30;;;;;;;;;;8255322;28;20455;-75
2020/12/25 03:04:04;;;;;;;4.20;3.10;;;;;;;;;;8257086;28;20483;-74
2020/12/25 03:08:07;;;;;;;3.47;2.65;;;;;;;;;;8256749;28;20495;-74
2020/12/25 03:12:10;;;;;;;4.28;2.63;;;;;;;;;;8255251;28;20475;-74
2020/12/25 03:16:13;;;;;;;3.20;2.58;;;;;;;;;;8256908;28;20057;-74
2020/12/25 03:20:16;;;;;;;5.03;2.90;;;;;;;;;;8256904;28;20475;-74
2020/12/25 03:24:19;;;;;;;2.80;2.28;;;;;;;;;;8257194;28;20413;-74
2020/12/25 03:28:23;;;;;;;4.45;3.00;;;;;;;;;;8257392;28;20356;-74
2020/12/25 03:32:26;;;;;;;3.88;2.65;;;;;;;;;;8256396;28;20463;-74
2020/12/25 03:36:30;;;;;;;5.75;3.08;;;;;;;;;;8256592;28;20487;-74
2020/12/25 03:40:34;;;;;;;7.40;3.38;;;;;;;;;;8256975;28;20475;-73
2020/12/25 03:44:37;;;;;;;4.13;2.67;;;;;;;;;;8256604;28;20498;-74
2020/12/25 03:48:40;;;;;;;3.28;2.58;;;;;;;;;;8255950;28;20072;-74
2020/12/25 03:52:43;;;;;;;3.42;3.08;;;;;;;;;;8256504;28;20356;-74
2020/12/25 03:56:46;;;;;;;4.82;3.03;;;;;;;;;;8259018;28;20472;-74
2020/12/25 04:00:54;;;;;;;4.15;2.72;;;;;;;;;;8261216;28;20357;-73
2020/12/25 04:04:57;;;;;;;4.35;2.92;;;;;;;;;;8262661;28;20382;-74
2020/12/25 04:09:00;;;;;;;6.95;3.30;;;;;;;;;;8262554;28;20417;-74
2020/12/25 04:13:05;;;;;;;8.13;3.58;;;;;;;;;;8260208;28;20479;-73
2020/12/25 04:17:08;;;;;;;5.63;3.40;;;;;;;;;;8261121;28;20375;-74
2020/12/25 04:21:11;;;;;;;4.28;2.55;;;;;;;;;;8262240;28;20459;-74
2020/12/25 04:25:14;;;;;;;5.38;3.33;;;;;;;;;;8261660;28;20418;-74
2020/12/25 04:29:17;;;;;;;5.07;2.90;;;;;;;;;;8261181;28;20045;-74
2020/12/25 04:33:20;;;;;;;4.70;3.05;;;;;;;;;;8261847;28;20487;-74
2020/12/25 04:37:26;;;;;;;4.90;2.70;;;;;;;;;;8259797;28;20483;-74
2020/12/25 04:41:31;;;;;;;6.53;3.28;;;;;;;;;;8261035;28;20049;-75
2020/12/25 04:45:34;;;;;;;6.47;3.30;;;;;;;;;;8261238;28;20398;-75
2020/12/25 04:49:39;;;;;;;3.53;2.42;;;;;;;;;;8261352;28;20053;-75
2020/12/25 04:53:42;;;;;;;6.40;3.30;;;;;;;;;;8260883;28;20075;-75
2020/12/25 04:57:45;;;;;;;6.60;3.30;;;;;;;;;;8260941;28;20485;-76
2020/12/25 05:01:51;;;;;;;6.95;3.72;;;;;;;;;;8260663;28;20070;-75
2020/12/25 05:05:53;;;;;;;8.88;3.97;;;;;;;;;;8258853;28;20463;-75
2020/12/25 05:09:58;;;;;;;7.88;2.95;;;;;;;;;;8259041;28;20410;-75
2020/12/25 05:14:02;;;;;;;5.65;3.13;;;;;;;;;;8258752;28;20483;-75
2020/12/25 05:18:06;;;;;;;4.28;2.78;;;;;;;;;;8258454;28;20456;-75
2020/12/25 05:22:09;;;;;;;5.60;3.13;;;;;;;;;;8259776;28;20459;-75
2020/12/25 05:26:15;;;;;;;3.72;2.67;;;;;;;;;;8242022;28;20460;-75
2020/12/25 05:30:18;;;;;;;5.78;3.00;;;;;;;;;;8218282;28;20483;-76
2020/12/25 05:34:23;;;;;;;3.05;1.80;;;;;;;;;;8258182;28;20395;-75
2020/12/25 05:38:49;;;;;;;3.88;2.13;;;;;;;;;;8210047;28;20065;-75
2020/12/25 05:42:52;;;;;;;6.78;2.97;;;;;;;;;;8211780;28;20471;-75
2020/12/25 05:47:00;;;;;;;5.82;2.20;;;;;;;;;;8257556;28;20379;-75
2020/12/25 05:51:09;;;;;;;3.13;2.30;;;;;;;;;;8258163;28;20108;-74
2020/12/25 05:55:18;;;;;;;16.52;2.53;;;;;;;;;;8259279;28;20490;-75
2020/12/25 05:59:26;;;;;;;4.00;2.67;;;;;;;;;;8258990;28;20380;-75
2020/12/25 06:03:31;;;;;;;5.00;2.90;;;;;;;;;;8258478;28;20497;-75
2020/12/25 06:07:37;;;;;;;8.05;3.78;;;;;;;;;;8257304;28;20045;-75
2020/12/25 06:11:44;;;;;;;10.45;4.47;;;;;;;;;;8257562;28;20383;-75
2020/12/25 06:15:51;;;;;;;9.43;4.00;;;;;;;;;;8257273;28;20380;-75
2020/12/25 06:20:03;;;;;;;17.25;7.38;;;;;;;;;;8240396;28;20071;-75
2020/12/25 06:24:09;;;;;;;11.00;5.70;;;;;;;;;;8219703;28;20056;-75
2020/12/25 06:28:20;;;;;;;9.65;4.93;;;;;;;;;;8256166;28;20464;-75
2020/12/25 06:32:24;;;;;;;14.77;5.50;;;;;;;;;;8256462;28;20487;-75
2020/12/25 06:36:31;;;;;;;9.77;4.88;;;;;;;;;;8256482;28;20053;-76
2020/12/25 06:40:35;;;;;;;10.15;5.10;;;;;;;;;;8257356;28;20511;-75
2020/12/25 06:44:47;;;;;;;14.65;7.43;;;;;;;;;;8255960;28;20460;-75
2020/12/25 06:48:51;;;;;;;8.93;6.10;;;;;;;;;;8256022;28;20383;-76
2020/12/25 06:53:00;;;;;;;9.82;4.35;;;;;;;;;;8240042;28;20387;-75
2020/12/25 06:57:04;;;;;;;10.85;5.68;;;;;;;;;;8255531;28;20076;-75
2020/12/25 07:01:09;;;;;;;8.55;5.75;;;;;;;;;;8255167;28;20375;-75
2020/12/25 07:05:12;;;;;;;9.98;6.95;;;;;;;;;;8255462;28;20048;-75
2020/12/25 07:09:15;;;;;;;6.10;3.55;;;;;;;;;;8257394;28;20126;-75
2020/12/25 07:13:22;;;;;;;10.65;4.60;;;;;;;;;;8256765;28;20418;-75
2020/12/25 07:17:26;;;;;;;5.05;2.67;;;;;;;;;;8255339;28;20064;-75
2020/12/25 07:21:29;;;;;;;6.75;3.10;;;;;;;;;;8254858;28;20049;-75
2020/12/25 07:25:43;;;;;;;4.93;3.95;;;;;;;;;;8256234;28;20484;-76
2020/12/25 07:29:46;;;;;;;8.32;3.30;;;;;;;;;;8256153;28;20375;-75
2020/12/25 07:33:58;;;;;;;4.55;3.15;;;;;;;;;;8263292;28;20402;-76
2020/12/25 07:38:01;;;;;;;9.30;2.88;;;;;;;;;;8259076;28;20513;-75
2020/12/25 07:42:07;;;;;;;7.55;4.80;;;;;;;;;;8263328;28;20394;-75
2020/12/25 07:46:13;;;;;;;18.17;8.23;;;;;;;;;;8263260;28;20045;-75
2020/12/25 07:50:17;;;;;;;17.95;9.88;;;;;;;;;;8242014;28;20071;-75
2020/12/25 07:54:23;;;;;;;14.30;9.00;;;;;;;;;;8257947;28;20371;-75
2020/12/25 07:58:29;;;;;;;16.88;9.35;;;;;;;;;;8239513;28;20499;-74
2020/12/25 08:02:32;;;;;;;58.53;25.73;;;;;;;;;;8258069;28;20430;-75
2020/12/25 08:06:36;;;;;;;29.05;14.98;;;;;;;;;;8257744;28;20053;-75
2020/12/25 08:10:41;;;;;;;23.02;12.40;;;;;;;;;;8169640;28;20584;-75
2020/12/25 08:14:44;;;;;;;24.85;12.70;;;;;;;;;;8204648;28;20053;-75
2020/12/25 08:18:48;;;;;;;10.63;6.47;;;;;;;;;;8241274;28;20406;-75
2020/12/25 08:22:59;;;;;;;11.82;6.53;;;;;;;;;;8241291;28;20360;-76
2020/12/25 08:27:04;;;;;;;31.83;14.82;;;;;;;;;;8259483;28;20060;-75
2020/12/25 08:31:16;;;;;;;22.88;10.70;;;;;;;;;;8261548;28;20479;-75
2020/12/25 08:35:20;;;;;;;16.35;8.15;;;;;;;;;;8259897;28;20476;-76
2020/12/25 08:39:30;;;;;;;20.08;10.00;;;;;;;;;;8261452;28;20041;-75
2020/12/25 08:43:34;;;;;;;19.35;9.73;;;;;;;;;;8259063;28;20379;-76
2020/12/25 08:47:38;;;;;;;31.13;16.30;;;;;;;;;;8261014;28;20045;-75
2020/12/25 08:51:41;;;;;;;17.80;8.55;;;;;;;;;;8261285;28;20472;-75
2020/12/25 08:55:50;;;;;;;24.13;12.65;;;;;;;;;;8259153;28;20452;-75
2020/12/25 09:00:07;;;;;;;22.05;12.15;;;;;;;;;;8261083;28;20466;-78
2020/12/25 09:04:19;;;;;;;37.90;15.82;;;;;;;;;;8260526;28;20456;-75
2020/12/25 09:08:22;;;;;;;23.58;11.25;;;;;;;;;;8259214;28;20049;-75
2020/12/25 09:12:25;;;;;;;11.60;6.95;;;;;;;;;;8260301;28;20053;-75
2020/12/25 09:16:28;;;;;;;11.27;6.85;;;;;;;;;;8260051;28;20079;-76
2020/12/25 09:20:31;;;;;;;11.68;6.80;;;;;;;;;;8260052;28;20045;-75
2020/12/25 09:24:35;;;;;;;10.95;6.03;;;;;;;;;;8165637;28;20487;-73
2020/12/25 09:28:40;;;;;;;15.30;8.52;;;;;;;;;;8168793;28;20406;-74
2020/12/25 09:32:48;;;;;;;18.05;11.27;;;;;;;;;;8146501;28;20490;-74
2020/12/25 09:36:51;;;;;;;14.68;8.52;;;;;;;;;;8259405;28;20494;-74
2020/12/25 09:40:54;;;;;;;14.50;7.90;;;;;;;;;;8258988;28;20376;-74
2020/12/25 09:44:57;;;;;;;16.65;7.80;;;;;;;;;;8233336;28;20456;-74
2020/12/25 09:49:01;;;;;;;18.90;8.65;;;;;;;;;;8258715;28;20406;-74
2020/12/25 09:53:04;;;;;;;14.70;7.50;;;;;;;;;;8258202;28;20364;-75
2020/12/25 09:57:08;;;;;;;24.23;15.00;;;;;;;;;;8262870;28;20067;-75
2020/12/25 10:01:11;;;;;;;13.27;7.68;;;;;;;;;;8259110;28;20494;-74
2020/12/25 10:05:15;;;;;;;25.58;12.02;;;;;;;;;;8258907;28;20382;-74
2020/12/25 10:09:19;;;;;;;22.38;11.63;;;;;;;;;;8256995;28;20360;-75
2020/12/25 10:13:23;;;;;;;39.03;15.38;;;;;;;;;;8258708;28;20380;-74
2020/12/25 10:17:26;;;;;;;77.30;28.73;;;;;;;;;;8255045;28;20375;-78
2020/12/25 10:21:30;;;;;;;23.80;11.27;;;;;;;;;;8256380;28;20049;-77
2020/12/25 10:25:33;;;;;;;13.98;7.88;;;;;;;;;;8258634;28;20245;-75
2020/12/25 10:29:36;;;;;;;29.27;15.35;;;;;;;;;;8256596;28;20374;-76
2020/12/25 10:33:39;;;;;;;20.98;13.32;;;;;;;;;;8259087;28;20337;-74
2020/12/25 10:37:42;;;;;;;19.95;9.30;;;;;;;;;;8257504;28;20460;-74
2020/12/25 10:42:09;;;;;;;25.70;13.18;;;;;;;;;;8256155;28;20396;-75
2020/12/25 10:46:19;;;;;;;;;;;;;;;;;;8232515;28;20513;-75
2020/12/25 10:50:24;;;;;;;14.15;7.32;;;;;;;;;;8261415;28;20297;-75
2020/12/25 10:54:28;;;;;;;15.73;6.82;;;;;;;;;;8207868;28;20045;-75
2020/12/25 10:58:31;;;;;;;17.98;7.72;;;;;;;;;;8256683;28;20076;-75
2020/12/25 11:02:34;;;;;;;24.42;12.15;;;;;;;;;;8256431;28;20372;-75
2020/12/25 11:06:37;;;;;;;20.25;9.95;;;;;;;;;;8255658;28;20049;-74
2020/12/25 11:10:44;;;;;;;30.92;15.25;;;;;;;;;;8256898;28;20360;-75
2020/12/25 11:14:48;;;;;;;13.00;7.72;;;;;;;;;;8254539;28;20486;-75
2020/12/25 11:19:09;;;;;;;13.90;8.18;;;;;;;;;;8255312;28;20375;-75
2020/12/25 11:23:17;;;;;;;18.45;9.82;;;;;;;;;;8254582;28;20049;-75
2020/12/25 11:27:20;;;;;;;16.20;7.97;;;;;;;;;;8256955;28;20486;-75
2020/12/25 11:31:25;;;;;;;38.80;11.68;;;;;;;;;;8256194;28;20061;-76
2020/12/25 11:35:28;;;;;;;28.75;9.68;;;;;;;;;;8254971;28;20387;-76
2020/12/25 11:39:31;;;;;;;20.95;9.25;;;;;;;;;;8256323;28;20071;-75
2020/12/25 11:43:35;;;;;;;13.50;7.20;;;;;;;;;;8255716;28;20380;-75
2020/12/25 11:47:38;;;;;;;15.23;7.03;;;;;;;;;;8220826;28;20364;-74
2020/12/25 11:51:42;;;;;;;8.00;3.95;;;;;;;;;;8256147;28;20066;-75
2020/12/25 11:55:45;;;;;;;10.65;4.45;;;;;;;;;;8120326;28;20481;-76
2020/12/25 11:59:48;;;;;;;14.65;7.00;;;;;;;;;;8256291;28;20053;-76
2020/12/25 12:03:51;;;;;;;12.07;5.88;;;;;;;;;;8256595;28;20379;-76
2020/12/25 12:07:55;;;;;;;17.17;7.32;;;;;;;;;;8255764;28;20499;-75
2020/12/25 12:11:58;;;;;;;18.67;8.63;;;;;;;;;;8208505;28;20383;-75
2020/12/25 12:16:01;;;;;;;20.80;9.80;;;;;;;;;;8255829;28;20074;-75
2020/12/25 12:20:04;;;;;;;15.80;7.20;;;;;;;;;;8260486;28;20406;-75
2020/12/25 12:24:08;;;;;;;13.60;6.90;;;;;;;;;;8261842;28;20493;-75
2020/12/25 12:28:31;;;;;;;14.15;7.50;;;;;;;;;;8261784;28;20399;-75
2020/12/25 12:32:34;;;;;;;13.35;6.82;;;;;;;;;;8244004;28;20401;-76
2020/12/25 12:36:38;;;;;;;14.45;7.15;;;;;;;;;;8242863;28;20057;-75
2020/12/25 12:40:41;;;;;;;10.75;6.88;;;;;;;;;;8259655;28;20479;-75
2020/12/25 12:44:45;;;;;;;14.73;9.00;;;;;;;;;;8259756;28;20045;-73
2020/12/25 12:48:47;;;;;;;9.10;5.45;;;;;;;;;;8259247;28;20053;-73
2020/12/25 12:52:50;;;;;;;17.33;7.00;;;;;;;;;;8259153;28;20424;-74
2020/12/25 12:56:53;;;;;;;17.30;6.40;;;;;;;;;;8212392;28;20105;-74
2020/12/25 13:00:57;;;;;;;21.05;7.93;;;;;;;;;;8256739;28;20379;-75
2020/12/25 13:05:00;;;;;;;15.15;6.15;;;;;;;;;;8240521;28;20534;-75
2020/12/25 13:09:04;;;;;;;32.63;14.45;;;;;;;;;;8240181;28;20049;-74
2020/12/25 13:13:07;;;;;;;24.00;13.32;;;;;;;;;;8256137;28;20383;-75
2020/12/25 13:17:10;;;;;;;21.88;11.65;;;;;;;;;;8258003;28;20631;-74
2020/12/25 13:21:23;;;;;;;17.10;10.18;;;;;;;;;;8256269;28;20503;-74
2020/12/25 13:25:26;;;;;;;17.05;9.30;;;;;;;;;;8256080;28;20052;-74
2020/12/25 13:29:29;;;;;;;26.15;9.18;;;;;;;;;;8255145;28;20353;-74
2020/12/25 13:33:33;;;;;;;55.45;14.32;;;;;;;;;;8259159;28;20479;-75
2020/12/25 13:37:37;;;;;;;26.15;10.98;;;;;;;;;;8257118;28;20387;-75
2020/12/25 13:41:41;;;;;;;32.17;11.20;;;;;;;;;;8258486;28;20075;-74
2020/12/25 13:45:44;;;;;;;32.53;14.10;;;;;;;;;;8258883;28;20049;-75
2020/12/25 13:49:47;;;;;;;72.15;22.58;;;;;;;;;;8259327;28;20483;-76
2020/12/25 13:53:52;;;;;;;339.10;131.82;;;;;;;;;;8259364;28;20045;-75
2020/12/25 13:57:55;;;;;;;88.15;38.17;;;;;;;;;;8259019;28;20467;-74
2020/12/25 14:01:58;;;;;;;125.28;56.30;;;;;;;;;;8241822;28;20452;-76
2020/12/25 14:06:03;;;;;;;35.42;20.38;;;;;;;;;;8225109;28;20495;-75
2020/12/25 14:10:06;;;;;;;38.67;16.52;;;;;;;;;;8223748;28;20384;-74
2020/12/25 14:14:25;;;;;;;45.63;27.45;;;;;;;;;;8241463;28;20489;-74
2020/12/25 14:18:28;;;;;;;26.65;10.80;;;;;;;;;;8255995;28;20067;-75
2020/12/25 14:22:32;;;;;;;170.95;84.80;;;;;;;;;;8255825;28;20060;-74
2020/12/25 14:26:35;;;;;;;56.78;23.30;;;;;;;;;;8257919;28;20357;-72
2020/12/25 14:30:38;;;;;;;52.30;22.20;;;;;;;;;;8256892;28;20379;-74
2020/12/25 14:34:42;;;;;;;49.88;19.02;;;;;;;;;;8218315;28;20045;-74
2020/12/25 14:38:46;;;;;;;137.45;46.38;;;;;;;;;;8255326;28;20386;-75
2020/12/25 14:42:49;;;;;;;169.27;60.00;;;;;;;;;;8226574;28;20465;-73
2020/12/25 14:46:55;;;;;;;169.13;54.83;;;;;;;;;;8254974;28;20475;-74
2020/12/25 14:50:58;;;;;;;160.18;50.30;;;;;;;;;;8247868;28;20917;-73
2020/12/25 14:55:03;;;;;;;118.65;41.58;;;;;;;;;;8248866;28;20064;-73
2020/12/25 15:10:41;;;;;;;152.20;60.22;;;;;;;;;;8243472;27;20964;-73
2020/12/25 15:15:01;;;;;;;119.18;51.60;;;;;;;;;;8193497;28;20041;-72
2020/12/25 15:19:05;;;;;;;160.02;54.08;;;;;;;;;;8196241;28;20476;-73
2020/12/25 15:23:08;;;;;;;113.95;46.80;;;;;;;;;;8213592;28;20054;-72
2020/12/25 15:27:16;;;;;;;63.65;30.98;;;;;;;;;;8148421;28;20057;-74
2020/12/25 15:31:29;;;;;;;;;;;;;;;;;;8079985;28;20049;-73
2020/12/25 15:35:37;;;;;;;68.78;25.48;;;;;;;;;;8033477;28;20321;-74
2020/12/25 15:39:48;;;;;;;114.45;40.47;;;;;;;;;;8093823;28;20518;-73
2020/12/25 15:44:04;;;;;;;135.40;46.55;;;;;;;;;;8087706;28;20409;-73
2020/12/25 15:48:12;;;;;;;123.25;40.83;;;;;;;;;;8111623;28;20524;-73
2020/12/25 15:52:20;;;;;;;71.75;26.30;;;;;;;;;;8086851;28;20436;-74
2020/12/25 15:56:35;;;;;;;59.63;23.35;;;;;;;;;;8149074;28;20090;-73
2020/12/25 16:00:50;;;;;;;65.38;25.25;;;;;;;;;;8123060;28;20465;-74
2020/12/25 16:05:22;;;;;;;50.03;19.75;;;;;;;;;;8071776;29;20462;-73
2020/12/25 16:09:41;;;;;;;48.50;20.52;;;;;;;;;;8058574;29;20379;-73
2020/12/25 16:14:00;;;;;;;36.95;16.63;;;;;;;;;;8025403;29;20503;-74
2020/12/25 16:18:39;;;;;;;39.60;17.05;;;;;;;;;;8031247;29;20514;-73
2020/12/25 16:22:47;;;;;;;41.63;18.20;;;;;;;;;;8034136;29;20513;-74
2020/12/25 16:27:01;;;;;;;42.65;18.08;;;;;;;;;;8008246;29;20075;-74
2020/12/25 16:31:09;;;;;;;34.95;15.77;;;;;;;;;;8007226;29;20494;-74
2020/12/25 16:35:17;;;;;;;43.65;17.60;;;;;;;;;;7993298;29;20476;-74
2020/12/25 16:39:21;;;;;;;46.17;19.70;;;;;;;;;;7964421;29;20388;-73
2020/12/25 16:43:25;;;;;;;30.23;15.02;;;;;;;;;;8056021;29;20474;-72
2020/12/25 16:47:29;;;;;;;29.05;13.23;;;;;;;;;;8063933;29;20192;-74
2020/12/25 16:51:36;;;;;;;32.30;13.57;;;;;;;;;;8068318;28;20509;-74
2020/12/25 16:55:44;;;;;;;38.80;15.77;;;;;;;;;;8039963;28;20047;-74
2020/12/25 17:00:02;;;;;;;35.97;18.10;;;;;;;;;;8039039;28;20056;-73
2020/12/25 17:04:24;;;;;;;35.25;12.93;;;;;;;;;;8077005;28;20499;-72
2020/12/25 17:08:44;;;;;;;;;;;;;;;;;;8188844;28;20384;-71
2020/12/25 17:12:50;;;;;;;211.45;54.47;;;;;;;;;;8169649;28;19925;-73
2020/12/25 17:17:01;;;;;;;122.60;37.72;;;;;;;;;;8186986;28;20484;-72
2020/12/25 17:21:15;;;;;;;62.38;28.10;;;;;;;;;;8189125;28;20104;-72
2020/12/25 17:25:19;;;;;;;73.25;27.15;;;;;;;;;;8186192;28;20050;-73
2020/12/25 17:29:22;;;;;;;35.70;17.40;;;;;;;;;;8189053;28;20500;-74
2020/12/25 17:33:30;;;;;;;34.15;16.52;;;;;;;;;;8178139;28;20498;-75
2020/12/25 17:37:52;;;;;;;38.05;16.88;;;;;;;;;;8161553;28;20557;-73
2020/12/25 17:42:06;;;;;;;35.88;12.85;;;;;;;;;;8134372;28;20501;-73
2020/12/25 17:46:20;;;;;;;78.30;28.73;;;;;;;;;;8168849;28;20089;-72
2020/12/25 17:50:26;;;;;;;48.40;18.33;;;;;;;;;;8167908;28;20452;-73
2020/12/25 17:54:33;;;;;;;85.82;32.78;;;;;;;;;;8200094;28;20456;-74
2020/12/25 17:58:36;;;;;;;41.03;17.05;;;;;;;;;;8220580;28;20480;-74
2020/12/25 18:02:40;;;;;;;38.92;15.07;;;;;;;;;;8194415;28;20460;-73
2020/12/25 18:06:43;;;;;;;42.45;16.58;;;;;;;;;;8161390;28;20053;-73
2020/12/25 18:10:48;;;;;;;39.50;18.98;;;;;;;;;;8140178;28;20473;-73
2020/12/25 18:14:52;;;;;;;21.65;9.68;;;;;;;;;;8125438;28;20372;-74
2020/12/25 18:18:54;;;;;;;36.65;19.33;;;;;;;;;;8163660;28;20374;-75
2020/12/25 18:22:57;;;;;;;52.15;23.88;;;;;;;;;;8172927;28;20049;-75
2020/12/25 18:27:01;;;;;;;80.75;31.00;;;;;;;;;;8189693;28;20450;-73
2020/12/25 18:31:04;;;;;;;61.63;31.08;;;;;;;;;;8181058;28;20505;-74
2020/12/25 18:35:07;;;;;;;34.05;14.40;;;;;;;;;;8139841;28;20462;-74
2020/12/25 18:39:11;;;;;;;42.42;17.00;;;;;;;;;;8154527;28;20493;-74
2020/12/25 18:43:14;;;;;;;40.13;16.42;;;;;;;;;;8145846;28;20363;-75
2020/12/25 18:47:28;;;;;;;47.15;18.52;;;;;;;;;;8163058;28;20047;-74
2020/12/25 18:51:32;;;;;;;35.28;14.82;;;;;;;;;;8157824;28;20462;-73
2020/12/25 18:55:38;;;;;;;43.40;18.45;;;;;;;;;;8148019;28;20492;-74
2020/12/25 18:59:43;;;;;;;24.83;11.00;;;;;;;;;;8144632;28;20160;-74
2020/12/25 19:03:47;;;;;;;21.88;9.50;;;;;;;;;;8144405;28;20496;-74
2020/12/25 19:07:50;;;;;;;24.77;10.75;;;;;;;;;;8159064;28;20090;-75
2020/12/25 19:12:01;;;;;;;31.48;13.68;;;;;;;;;;8158716;28;20354;-74
2020/12/25 19:16:08;;;;;;;55.47;16.80;;;;;;;;;;8151645;28;20043;-74
2020/12/25 19:20:13;;;;;;;31.65;11.32;;;;;;;;;;8152148;28;20420;-74
2020/12/25 19:24:18;;;;;;;41.53;13.10;;;;;;;;;;8115715;28;20421;-74
2020/12/25 19:28:21;;;;;;;20.48;8.55;;;;;;;;;;8158835;28;20042;-74
2020/12/25 19:32:27;;;;;;;33.95;10.25;;;;;;;;;;8180558;28;20050;-76
2020/12/25 19:36:31;;;;;;;23.13;9.32;;;;;;;;;;8179630;28;20104;-75
2020/12/25 19:40:35;;;;;;;34.67;11.65;;;;;;;;;;8188793;28;20058;-74
2020/12/25 19:44:38;;;;;;;31.15;10.82;;;;;;;;;;8172571;28;20447;-74
2020/12/25 19:48:41;;;;;;;34.03;12.57;;;;;;;;;;8190675;28;20076;-74
2020/12/25 19:52:46;;;;;;;35.22;12.27;;;;;;;;;;8190368;28;20469;-74
2020/12/25 19:56:50;;;;;;;48.45;15.55;;;;;;;;;;8193841;28;20481;-73
2020/12/25 20:00:54;;;;;;;18.85;8.23;;;;;;;;;;8162130;28;20069;-74
2020/12/25 20:04:57;;;;;;;22.75;9.70;;;;;;;;;;8194842;28;20092;-72
2020/12/25 20:09:00;;;;;;;25.75;9.85;;;;;;;;;;8195632;28;20057;-74
2020/12/25 20:13:03;;;;;;;52.08;16.75;;;;;;;;;;8194675;28;20068;-73
2020/12/25 20:17:07;;;;;;;55.25;20.70;;;;;;;;;;8195380;28;20345;-74
2020/12/25 20:21:11;;;;;;;64.00;24.02;;;;;;;;;;8153974;28;20460;-74
2020/12/25 20:25:14;;;;;;;55.30;21.40;;;;;;;;;;8193804;28;20380;-73
2020/12/25 20:29:17;;;;;;;44.08;17.13;;;;;;;;;;8195845;28;20400;-74
2020/12/25 20:33:21;;;;;;;23.95;9.55;;;;;;;;;;8192362;28;20427;-74
2020/12/25 20:37:24;;;;;;;31.25;11.18;;;;;;;;;;8195401;28;20453;-72
2020/12/25 20:41:28;;;;;;;39.60;14.00;;;;;;;;;;8190105;28;20477;-74
2020/12/25 20:45:31;;;;;;;39.22;13.55;;;;;;;;;;8194025;28;20062;-73
2020/12/25 20:49:34;;;;;;;36.72;15.43;;;;;;;;;;8193253;28;20479;-74
2020/12/25 20:53:38;;;;;;;60.63;27.02;;;;;;;;;;8194536;28;20483;-74
2020/12/25 20:57:42;;;;;;;49.63;24.17;;;;;;;;;;8146996;28;20038;-74
2020/12/25 21:01:49;;;;;;;51.33;27.08;;;;;;;;;;8150958;28;20500;-72
2020/12/25 21:05:54;;;;;;;24.65;10.75;;;;;;;;;;8124789;28;20385;-74
2020/12/25 21:09:57;;;;;;;23.90;9.57;;;;;;;;;;8099564;28;20385;-74
2020/12/25 21:14:01;;;;;;;29.63;12.90;;;;;;;;;;8100157;28;20043;-74
2020/12/25 21:18:04;;;;;;;17.48;6.43;;;;;;;;;;8106836;28;20069;-74
2020/12/25 21:22:08;;;;;;;14.90;6.68;;;;;;;;;;8155266;28;20054;-75
2020/12/25 21:26:16;;;;;;;18.70;7.65;;;;;;;;;;8153431;28;20462;-75
2020/12/25 21:30:19;;;;;;;24.40;9.10;;;;;;;;;;8157321;28;20487;-72
2020/12/25 21:34:23;;;;;;;44.05;11.45;;;;;;;;;;8157898;28;20376;-74
2020/12/25 21:38:27;;;;;;;56.35;13.75;;;;;;;;;;8157362;28;20445;-72
2020/12/25 21:42:32;;;;;;;17.58;7.50;;;;;;;;;;8123052;28;20389;-73
2020/12/25 21:46:36;;;;;;;29.17;8.98;;;;;;;;;;8180532;28;20384;-74
2020/12/25 21:50:39;;;;;;;235.07;44.90;;;;;;;;;;8193388;28;20412;-73
2020/12/25 21:54:41;;;;;;;206.32;39.30;;;;;;;;;;8170553;28;20373;-73
2020/12/25 21:58:45;;;;;;;20.25;8.93;;;;;;;;;;8174638;28;20449;-74
2020/12/25 22:02:49;;;;;;;16.48;7.72;;;;;;;;;;8160786;28;20378;-73
2020/12/25 22:06:53;;;;;;;28.58;8.90;;;;;;;;;;8146861;28;20496;-73
2020/12/25 22:10:56;;;;;;;20.70;7.90;;;;;;;;;;8187622;28;20050;-73
2020/12/25 22:14:59;;;;;;;23.00;7.22;;;;;;;;;;8190855;28;20376;-74
2020/12/25 22:19:02;;;;;;;22.27;7.90;;;;;;;;;;8192503;28;20076;-73
2020/12/25 22:23:06;;;;;;;17.45;6.43;;;;;;;;;;8191751;28;20380;-74
2020/12/25 22:27:10;;;;;;;15.32;7.03;;;;;;;;;;8191650;28;20373;-74
2020/12/25 22:31:28;;;;;;;26.13;8.63;;;;;;;;;;8190932;28;20362;-73
2020/12/25 22:35:34;;;;;;;27.55;8.70;;;;;;;;;;8190124;28;20471;-73
2020/12/25 22:39:37;;;;;;;28.98;8.75;;;;;;;;;;8188094;28;20503;-74
2020/12/25 22:43:41;;;;;;;54.22;15.00;;;;;;;;;;8190396;28;20488;-73
2020/12/25 22:47:45;;;;;;;31.50;9.40;;;;;;;;;;8190803;28;20436;-74
2020/12/25 22:51:49;;;;;;;57.97;15.30;;;;;;;;;;8192163;28;20480;-74
2020/12/25 22:55:52;;;;;;;20.77;8.00;;;;;;;;;;8189446;28;20461;-74
2020/12/25 22:59:55;;;;;;;20.08;7.55;;;;;;;;;;8206824;28;20061;-73
2020/12/25 23:03:58;;;;;;;26.27;8.32;;;;;;;;;;8190446;28;20073;-72
2020/12/25 23:08:02;;;;;;;17.45;7.43;;;;;;;;;;8163603;28;20366;-73
2020/12/25 23:12:05;;;;;;;20.08;7.65;;;;;;;;;;8159517;28;20042;-74
2020/12/25 23:16:16;;;;;;;21.67;7.53;;;;;;;;;;8181285;28;20477;-73
2020/12/25 23:20:22;;;;;;;15.50;6.80;;;;;;;;;;8158148;28;20050;-72
2020/12/25 23:24:25;;;;;;;18.50;7.07;;;;;;;;;;8150891;28;20477;-73
2020/12/25 23:28:28;;;;;;;15.05;7.05;;;;;;;;;;8152417;28;20377;-73
2020/12/25 23:32:32;;;;;;;17.50;7.72;;;;;;;;;;8161367;28;20409;-73
2020/12/25 23:36:37;;;;;;;12.27;6.18;;;;;;;;;;8160939;28;20380;-73
2020/12/25 23:40:41;;;;;;;21.73;6.78;;;;;;;;;;8162534;28;20491;-73
2020/12/25 23:44:43;;;;;;;16.55;7.32;;;;;;;;;;8160162;28;20385;-72
2020/12/25 23:48:47;;;;;;;15.35;6.30;;;;;;;;;;8161538;28;20398;-73
2020/12/25 23:52:49;;;;;;;23.25;8.82;;;;;;;;;;8161740;28;20485;-73
2020/12/25 23:56:53;;;;;;;13.57;7.28;;;;;;;;;;8160858;28;20485;-73
